Time;durP1;ratioP1;P1;durP2;ratioP2;P2;SDS_P1;SDS_P2;PMS_P1;PMS_P2;Temp;Humidity;BMP_temperature;BMP_pressure;BME280_temperature;BME280_humidity;BME280_pressure;Samples;Min_cycle;Max_cycle;Signal;HPM_P1;HPM_P2
2023/12/28 00:52:22;;;;;;;1.40;1.15;;;;;;;9.13;100.00;100436.88;6192250;23;20024;-90
2023/12/28 00:55:01;;;;;;;2.22;0.98;;;;;;;9.05;100.00;100435.75;6216731;23;20028;-90
2023/12/28 01:00:17;;;;;;;4.55;1.25;;;;;;;9.11;100.00;100441.09;6199782;23;20401;-87
2023/12/28 01:05:21;;;;;;;1.67;1.20;;;;;;;9.17;100.00;100441.31;6222675;23;20019;-87
2023/12/28 01:08:01;;;;;;;2.70;1.10;;;;;;;9.20;100.00;100436.22;6213133;23;20102;-87
2023/12/28 01:10:30;;;;;;;2.33;1.35;;;;;;;9.25;100.00;100465.63;6213530;23;20099;-88
2023/12/28 01:12:58;;;;;;;2.03;1.40;;;;;;;9.27;100.00;100470.84;6212386;23;20019;-86
2023/12/28 01:15:28;;;;;;;2.20;1.20;;;;;;;9.34;100.00;100491.72;6213079;23;20051;-85
2023/12/28 01:18:00;;;;;;;1.75;1.30;;;;;;;9.39;100.00;100495.34;6213887;23;20021;-86
2023/12/28 01:20:29;;;;;;;2.67;1.48;;;;;;;9.40;100.00;100491.91;6216111;23;20017;-86
2023/12/28 01:23:00;;;;;;;1.48;1.08;;;;;;;9.48;100.00;100480.94;6209336;23;20020;-86
2023/12/28 01:33:20;;;;;;;1.48;1.10;;;;;;;9.50;100.00;100487.91;6182217;23;20032;-88
2023/12/28 01:43:32;;;;;;;5.50;2.25;;;;;;;9.55;100.00;100481.19;6190101;23;20025;-89
2023/12/28 01:46:05;;;;;;;4.10;2.05;;;;;;;9.57;100.00;100483.78;6182995;23;20028;-89
2023/12/28 01:48:39;;;;;;;4.95;1.92;;;;;;;9.59;100.00;100484.72;6182671;23;20025;-91
2023/12/28 02:01:22;;;;;;;5.53;2.13;;;;;;;9.64;100.00;100511.53;6177475;23;20076;-85
2023/12/28 02:03:54;;;;;;;4.70;2.00;;;;;;;9.60;100.00;100474.44;6152082;23;20021;-83
2023/12/28 02:06:25;;;;;;;3.80;2.22;;;;;;;9.61;100.00;100498.53;6152210;23;20146;-86
2023/12/28 02:08:54;;;;;;;20.63;11.15;;;;;;;9.59;100.00;100513.13;6154683;23;20018;-83
2023/12/28 02:11:23;;;;;;;8.27;4.65;;;;;;;9.58;100.00;100490.72;6153579;23;20022;-84
2023/12/28 02:14:04;;;;;;;9.50;3.92;;;;;;;9.46;100.00;100480.00;6153901;23;20529;-84
2023/12/28 02:16:42;;;;;;;13.63;6.72;;;;;;;9.46;100.00;100498.09;6155434;23;20037;-84
2023/12/28 02:19:27;;;;;;;20.90;10.85;;;;;;;9.46;100.00;100508.41;6155634;23;20050;-84
2023/12/28 02:21:57;;;;;;;5.80;3.10;;;;;;;9.50;100.00;100505.09;6155701;23;20025;-83
2023/12/28 02:24:26;;;;;;;6.95;2.83;;;;;;;9.47;100.00;100502.44;6154358;23;20026;-83
2023/12/28 02:27:09;;;;;;;6.90;3.40;;;;;;;9.47;100.00;100507.59;6154801;23;20043;-83
2023/12/28 02:29:39;;;;;;;5.95;2.63;;;;;;;9.49;100.00;100511.97;6154117;23;20076;-82
2023/12/28 02:32:14;;;;;;;6.70;2.28;;;;;;;9.49;100.00;100509.41;6154935;23;20032;-84
2023/12/28 02:34:49;;;;;;;4.40;2.38;;;;;;;9.47;100.00;100517.94;6156928;23;20014;-83
2023/12/28 02:37:20;;;;;;;8.68;3.20;;;;;;;9.45;100.00;100530.78;6155416;23;20080;-84
2023/12/28 02:39:51;;;;;;;4.75;2.67;;;;;;;9.50;100.00;100524.06;6154420;23;20114;-85
2023/12/28 02:42:28;;;;;;;7.93;3.07;;;;;;;9.50;100.00;100528.34;6153700;23;20020;-85
2023/12/28 02:44:56;;;;;;;5.43;3.20;;;;;;;9.44;100.00;100522.19;6154385;23;20097;-83
2023/12/28 02:47:25;;;;;;;4.63;2.72;;;;;;;9.42;100.00;100531.56;6153569;23;20104;-84
2023/12/28 02:49:59;;;;;;;4.97;2.58;;;;;;;9.43;100.00;100538.47;6152053;23;20033;-83
2023/12/28 02:52:28;;;;;;;4.75;2.75;;;;;;;9.42;100.00;100530.72;6154384;23;20033;-84
2023/12/28 02:54:57;;;;;;;7.68;2.40;;;;;;;9.39;100.00;100526.34;6155380;23;20053;-84
2023/12/28 02:57:27;;;;;;;3.90;2.50;;;;;;;9.38;100.00;100534.88;6154822;23;20093;-83
2023/12/28 03:00:01;;;;;;;4.28;3.03;;;;;;;9.36;100.00;100515.88;6154982;23;20026;-85
2023/12/28 03:02:30;;;;;;;5.22;2.65;;;;;;;9.36;100.00;100533.97;6175813;23;20021;-84
2023/12/28 03:04:59;;;;;;;6.72;2.33;;;;;;;9.31;100.00;100538.13;6171785;23;20021;-84
2023/12/28 03:07:28;;;;;;;4.82;2.50;;;;;;;9.30;100.00;100530.31;6184104;23;20028;-84
2023/12/28 03:09:57;;;;;;;3.58;1.92;;;;;;;9.25;100.00;100537.91;6185375;23;20021;-82
2023/12/28 03:12:32;;;;;;;5.30;1.98;;;;;;;9.17;100.00;100523.91;6187524;23;20021;-83
2023/12/28 03:15:00;;;;;;;4.05;1.90;;;;;;;9.15;100.00;100530.72;6184411;23;20029;-83
2023/12/28 03:17:30;;;;;;;4.10;1.80;;;;;;;9.09;100.00;100530.53;6184972;23;20064;-83
2023/12/28 03:20:11;;;;;;;;;;;;;;;;;;;;;
2023/12/28 03:22:40;;;;;;;3.17;1.58;;;;;;;9.15;100.00;100552.25;6183472;23;20095;-84
2023/12/28 03:25:09;;;;;;;5.32;2.28;;;;;;;9.14;100.00;100557.34;6183748;23;20021;-84
2023/12/28 03:27:40;;;;;;;3.67;1.60;;;;;;;9.13;100.00;100555.59;6184669;23;20104;-83
2023/12/28 03:30:12;;;;;;;5.47;1.73;;;;;;;9.16;100.00;100558.28;6184997;23;20053;-83
2023/12/28 03:32:41;;;;;;;;;;;;;;;9.16;100.00;100585.00;6185546;23;20101;-84
2023/12/28 03:35:09;;;;;;;6.47;2.90;;;;;;;9.16;100.00;100574.66;6184905;23;19916;-84
2023/12/28 03:37:38;;;;;;;7.78;2.90;;;;;;;9.13;100.00;100581.41;6184429;23;20097;-84
2023/12/28 03:40:10;;;;;;;6.07;2.60;;;;;;;9.12;100.00;100602.91;6184699;23;20024;-86
2023/12/28 03:42:41;;;;;;;4.72;2.05;;;;;;;9.05;100.00;100580.28;6183987;23;20017;-84
2023/12/28 03:45:11;;;;;;;3.88;1.92;;;;;;;9.02;100.00;100600.03;6182810;23;20088;-83
2023/12/28 03:47:40;;;;;;;2.97;1.63;;;;;;;8.98;100.00;100594.72;6187961;23;20052;-82
2023/12/28 03:50:18;;;;;;;2.85;2.00;;;;;;;8.86;100.00;100600.31;6185293;23;20025;-83
2023/12/28 03:52:47;;;;;;;4.00;1.60;;;;;;;8.86;100.00;100600.31;6184335;23;20097;-83
2023/12/28 03:55:16;;;;;;;4.93;1.52;;;;;;;8.85;100.00;100601.16;6184353;23;20032;-84
2023/12/28 03:57:53;;;;;;;3.25;1.83;;;;;;;8.80;100.00;100606.16;6184020;23;20021;-84
2023/12/28 04:00:23;;;;;;;5.20;2.20;;;;;;;8.70;100.00;100604.06;6184070;23;20099;-85
2023/12/28 04:02:51;;;;;;;5.85;2.35;;;;;;;8.67;100.00;100608.25;6183828;23;20490;-82
2023/12/28 04:05:20;;;;;;;3.75;1.90;;;;;;;8.63;100.00;100611.56;6184025;23;20025;-82
2023/12/28 04:07:50;;;;;;;2.38;1.88;;;;;;;8.61;100.00;100611.50;6184410;23;20023;-83
2023/12/28 04:10:31;;;;;;;3.53;1.80;;;;;;;8.60;100.00;100608.03;6183941;23;20041;-84
2023/12/28 04:13:02;;;;;;;5.53;2.15;;;;;;;8.57;100.00;100613.09;6183629;23;20025;-84
2023/12/28 04:15:31;;;;;;;3.40;1.85;;;;;;;8.57;100.00;100623.41;6183409;23;20104;-84
2023/12/28 04:18:03;;;;;;;4.07;2.15;;;;;;;8.51;100.00;100628.34;6182734;23;20045;-84
2023/12/28 04:20:32;;;;;;;7.43;2.05;;;;;;;8.44;100.00;100630.66;6184485;23;20116;-84
2023/12/28 04:23:01;;;;;;;5.25;1.83;;;;;;;8.42;100.00;100622.84;6184091;23;20068;-83
2023/12/28 04:25:30;;;;;;;6.97;1.98;;;;;;;8.48;100.00;100635.13;6187213;23;20028;-82
2023/12/28 04:28:00;;;;;;;4.75;1.77;;;;;;;8.50;100.00;100621.44;6184266;23;20021;-81
2023/12/28 04:30:29;;;;;;;2.17;1.55;;;;;;;8.49;100.00;100618.81;6183232;23;20017;-82
2023/12/28 04:32:58;;;;;;;4.60;1.80;;;;;;;8.49;100.00;100619.69;6183170;23;20108;-82
2023/12/28 04:35:26;;;;;;;5.18;1.77;;;;;;;8.46;100.00;100614.41;6183723;23;20021;-85
2023/12/28 04:37:57;;;;;;;3.60;1.92;;;;;;;8.47;100.00;100611.00;6183511;23;20073;-84
2023/12/28 04:40:30;;;;;;;4.00;2.10;;;;;;;8.46;100.00;100622.16;6183870;23;20096;-83
2023/12/28 04:43:01;;;;;;;6.80;2.17;;;;;;;8.49;100.00;100634.28;6184081;23;20151;-82
2023/12/28 04:45:29;;;;;;;5.35;1.70;;;;;;;8.48;100.00;100633.41;6183556;23;20095;-83
2023/12/28 04:47:58;;;;;;;5.13;1.77;;;;;;;8.49;100.00;100635.16;6172040;23;20093;-81
2023/12/28 04:50:31;;;;;;;2.78;1.75;;;;;;;8.46;100.00;100649.66;6183985;23;20025;-81
2023/12/28 04:53:00;;;;;;;7.75;4.18;;;;;;;8.41;100.00;100654.63;6183959;23;20108;-81
2023/12/28 04:55:29;;;;;;;7.07;3.28;;;;;;;8.42;100.00;100653.81;6183493;23;20027;-82
2023/12/28 04:57:57;;;;;;;7.00;3.83;;;;;;;8.45;100.00;100666.78;6183385;23;20035;-82
2023/12/28 05:00:31;;;;;;;6.55;3.28;;;;;;;8.45;100.00;100677.09;6183420;23;20075;-83
2023/12/28 05:03:00;;;;;;;7.25;3.28;;;;;;;8.42;100.00;100678.72;6186698;23;20079;-84
2023/12/28 05:05:28;;;;;;;8.75;3.33;;;;;;;8.45;100.00;100695.16;6183481;23;20028;-83
2023/12/28 05:07:57;;;;;;;5.72;2.85;;;;;;;8.42;100.00;100710.53;6184668;23;20047;-84
2023/12/28 05:10:28;;;;;;;8.95;4.10;;;;;;;8.40;100.00;100745.69;6184223;23;20096;-84
2023/12/28 05:12:59;;;;;;;4.88;2.92;;;;;;;8.33;100.00;100772.91;6184115;23;20021;-83
2023/12/28 05:15:29;;;;;;;4.50;2.42;;;;;;;8.34;100.00;100781.53;6184482;23;20039;-81
2023/12/28 05:17:59;;;;;;;8.02;2.17;;;;;;;8.37;100.00;100773.91;6184273;23;20025;-84
2023/12/28 05:20:28;;;;;;;7.43;2.90;;;;;;;8.39;100.00;100778.28;6184378;23;20033;-84
2023/12/28 05:22:59;;;;;;;4.50;2.70;;;;;;;8.39;100.00;100782.59;6183746;23;20025;-83
2023/12/28 05:25:28;;;;;;;5.20;2.80;;;;;;;8.48;100.00;100793.28;6183996;23;20103;-82
2023/12/28 05:27:56;;;;;;;6.05;2.80;;;;;;;8.51;100.00;100803.69;6183538;23;20052;-83
2023/12/28 05:30:25;;;;;;;5.13;2.72;;;;;;;8.50;100.00;100796.81;6184251;23;20032;-83
2023/12/28 05:32:55;;;;;;;4.95;2.03;;;;;;;8.40;100.00;100807.56;6184108;23;20268;-83
2023/12/28 05:35:24;;;;;;;4.47;2.72;;;;;;;8.34;100.00;100815.03;6185093;23;20125;-84
2023/12/28 05:37:53;;;;;;;3.53;2.38;;;;;;;8.31;100.00;100831.25;6183705;23;20099;-84
2023/12/28 05:40:22;;;;;;;5.80;2.53;;;;;;;8.25;100.00;100809.53;6188174;23;20057;-83
2023/12/28 05:42:51;;;;;;;5.85;2.63;;;;;;;8.25;100.00;100805.25;6184162;23;20021;-85
2023/12/28 05:45:22;;;;;;;3.65;2.15;;;;;;;8.27;100.00;100810.44;6183731;23;20021;-85
2023/12/28 05:47:51;;;;;;;6.78;2.60;;;;;;;8.26;100.00;100809.56;6183767;23;20026;-85
2023/12/28 05:50:22;;;;;;;5.10;2.50;;;;;;;8.28;100.00;100822.53;6184276;23;20071;-85
2023/12/28 05:52:50;;;;;;;5.88;1.90;;;;;;;8.29;100.00;100822.59;6183559;23;20029;-85
2023/12/28 05:55:19;;;;;;;5.38;2.42;;;;;;;8.32;100.00;100821.84;6183180;23;20028;-86
2023/12/28 05:57:50;;;;;;;5.25;2.28;;;;;;;8.34;100.00;100825.34;6183799;23;20025;-86
2023/12/28 06:00:20;;;;;;;6.85;2.25;;;;;;;8.39;100.00;100835.03;6182501;23;20025;-89
2023/12/28 06:02:51;;;;;;;7.13;2.38;;;;;;;8.42;100.00;100829.13;6184565;23;20021;-86
2023/12/28 06:05:30;;;;;;;5.57;2.78;;;;;;;8.48;100.00;100837.13;6183238;23;20075;-86
2023/12/28 06:07:59;;;;;;;6.97;2.80;;;;;;;8.52;100.00;100827.78;6171483;23;20072;-86
2023/12/28 06:10:27;;;;;;;4.30;2.45;;;;;;;8.54;100.00;100831.31;6184312;23;20033;-85
2023/12/28 06:12:56;;;;;;;6.25;2.45;;;;;;;8.60;100.00;100834.13;6183616;23;20028;-85
2023/12/28 06:15:35;;;;;;;6.55;3.47;;;;;;;8.66;100.00;100844.69;6184407;23;20017;-91
2023/12/28 06:18:04;;;;;;;10.85;4.40;;;;;;;8.71;100.00;100862.94;6187117;23;20076;-84
2023/12/28 06:20:34;;;;;;;5.38;3.45;;;;;;;8.76;100.00;100861.41;6184050;23;20025;-84
2023/12/28 06:23:11;;;;;;;8.40;2.47;;;;;;;8.80;100.00;100859.00;6183513;23;20060;-84
2023/12/28 06:25:40;;;;;;;6.65;2.72;;;;;;;8.84;100.00;100859.09;6183555;23;20025;-84
2023/12/28 06:28:09;;;;;;;10.10;4.72;;;;;;;8.83;100.00;100860.81;6183816;23;20025;-84
2023/12/28 06:30:39;;;;;;;11.18;7.18;;;;;;;8.90;100.00;100872.25;6183225;23;20021;-83
2023/12/28 06:33:13;;;;;;;6.88;3.97;;;;;;;8.95;100.00;100868.13;6183551;23;20029;-84
2023/12/28 06:35:43;;;;;;;8.55;3.58;;;;;;;8.99;100.00;100870.03;6183069;23;20021;-85
2023/12/28 06:38:12;;;;;;;7.32;3.30;;;;;;;9.01;100.00;100856.34;6183719;23;20028;-84
2023/12/28 06:40:40;;;;;;;8.90;3.92;;;;;;;9.06;100.00;100853.06;6183470;23;20047;-84
2023/12/28 06:43:09;;;;;;;8.75;3.92;;;;;;;9.09;100.00;100861.78;6183789;23;20052;-85
2023/12/28 06:45:38;;;;;;;7.47;3.90;;;;;;;9.11;100.00;100867.88;6183740;23;20029;-84
2023/12/28 06:48:07;;;;;;;13.18;3.83;;;;;;;9.10;100.00;100858.41;6182388;23;20025;-83
2023/12/28 06:50:36;;;;;;;5.53;2.92;;;;;;;9.02;100.00;100858.13;6182380;23;20024;-84
2023/12/28 06:53:07;;;;;;;7.32;2.30;;;;;;;9.00;100.00;100877.81;6182910;23;20031;-84
2023/12/28 06:55:37;;;;;;;5.72;2.50;;;;;;;9.04;100.00;100875.34;6187516;23;20104;-85
2023/12/28 06:58:07;;;;;;;5.05;1.90;;;;;;;9.05;100.00;100890.91;6184829;23;20076;-85
2023/12/28 07:00:36;;;;;;;3.65;1.90;;;;;;;9.08;100.00;100900.47;6185851;23;20017;-84
2023/12/28 07:03:05;;;;;;;4.68;1.92;;;;;;;9.15;100.00;100913.66;6185759;23;20017;-84
2023/12/28 07:05:37;;;;;;;5.97;1.85;;;;;;;9.18;100.00;100923.22;6185218;23;20104;-84
2023/12/28 07:08:08;;;;;;;4.00;1.58;;;;;;;9.18;100.00;100918.03;6185863;23;20107;-84
2023/12/28 07:10:37;;;;;;;3.70;1.90;;;;;;;9.25;100.00;100919.16;6185947;23;20017;-84
2023/12/28 07:13:06;;;;;;;2.55;1.63;;;;;;;9.29;100.00;100926.19;6186146;23;20023;-84
2023/12/28 07:15:37;;;;;;;3.70;1.92;;;;;;;9.29;100.00;100929.66;6185886;23;20017;-84
2023/12/28 07:18:09;;;;;;;7.30;2.03;;;;;;;9.30;100.00;100913.34;6185061;23;20410;-84
2023/12/28 07:20:38;;;;;;;4.53;1.52;;;;;;;9.31;100.00;100930.59;6186272;23;20023;-85
2023/12/28 07:23:08;;;;;;;6.45;2.03;;;;;;;9.33;100.00;100933.25;6185316;23;20060;-84
2023/12/28 07:25:40;;;;;;;8.68;1.55;;;;;;;9.36;100.00;100938.50;6186168;23;20025;-83
2023/12/28 07:28:11;;;;;;;3.15;1.83;;;;;;;9.37;100.00;100925.66;6185551;23;20033;-84
2023/12/28 07:30:43;;;;;;;1.92;1.20;;;;;;;9.37;100.00;100940.28;6186432;23;20052;-84
2023/12/28 07:33:12;;;;;;;6.88;2.03;;;;;;;9.37;100.00;100943.75;6187893;23;20091;-85
2023/12/28 07:35:42;;;;;;;3.53;1.65;;;;;;;9.37;100.00;100946.31;6184759;23;20017;-84
2023/12/28 07:38:12;;;;;;;4.63;1.42;;;;;;;9.33;100.00;100936.69;6185725;23;20340;-85
2023/12/28 07:40:41;;;;;;;2.85;1.58;;;;;;;9.40;100.00;100959.34;6185611;23;20040;-85
2023/12/28 07:43:10;;;;;;;3.70;1.50;;;;;;;9.41;100.00;100948.22;6186397;23;20071;-85
2023/12/28 07:45:41;;;;;;;5.57;1.33;;;;;;;9.40;100.00;100959.34;6185084;23;20021;-85
2023/12/28 07:48:12;;;;;;;2.15;1.35;;;;;;;9.40;100.00;100956.75;6185737;23;20021;-85
2023/12/28 07:50:40;;;;;;;2.20;1.27;;;;;;;9.48;100.00;100953.56;6185414;23;20348;-83
2023/12/28 07:53:11;;;;;;;3.30;1.23;;;;;;;9.49;100.00;100953.66;6185149;23;20021;-86
2023/12/28 07:55:40;;;;;;;2.17;1.10;;;;;;;9.54;100.00;100966.72;6185068;23;20059;-85
2023/12/28 07:58:17;;;;;;;2.20;1.17;;;;;;;9.57;100.00;100978.03;6186367;23;20031;-85
2023/12/28 08:00:46;;;;;;;1.75;1.00;;;;;;;9.56;100.00;100958.22;6186274;23;20017;-85
2023/12/28 08:03:15;;;;;;;2.47;1.60;;;;;;;9.60;100.00;100959.22;6184916;23;20021;-85
2023/12/28 08:05:44;;;;;;;1.52;0.93;;;;;;;9.58;100.00;100978.94;6186130;23;20457;-84
2023/12/28 08:08:19;;;;;;;1.63;0.80;;;;;;;9.58;100.00;100976.34;6187158;23;20021;-83
2023/12/28 08:10:48;;;;;;;2.60;1.48;;;;;;;9.59;100.00;100976.41;6186969;23;20158;-85
2023/12/28 08:13:17;;;;;;;1.25;0.90;;;;;;;9.57;100.00;100985.78;6185682;23;20100;-83
2023/12/28 08:15:46;;;;;;;3.72;1.30;;;;;;;9.60;100.00;101003.13;6185466;23;20023;-84
2023/12/28 08:18:18;;;;;;;1.88;0.98;;;;;;;9.64;100.00;101007.56;6184948;23;20108;-84
2023/12/28 08:20:46;;;;;;;4.78;1.33;;;;;;;9.65;100.00;100999.00;6184935;23;20017;-84
2023/12/28 08:23:17;;;;;;;2.78;1.25;;;;;;;9.67;100.00;101006.81;6184738;23;20097;-84
2023/12/28 08:25:45;;;;;;;2.42;1.25;;;;;;;9.68;100.00;100996.53;6185321;23;20017;-84
2023/12/28 08:28:16;;;;;;;2.30;1.33;;;;;;;9.65;100.00;100986.09;6184991;23;20032;-84
2023/12/28 08:30:45;;;;;;;2.28;1.00;;;;;;;9.62;100.00;100993.72;6185346;23;20021;-84
2023/12/28 08:33:14;;;;;;;3.75;1.13;;;;;;;9.62;100.00;101004.03;6185676;23;20100;-84
2023/12/28 08:35:43;;;;;;;4.32;1.38;;;;;;;9.64;100.00;100997.22;6185060;23;20096;-84
2023/12/28 08:38:11;;;;;;;2.85;1.33;;;;;;;9.66;100.00;100995.59;6185355;23;20016;-84
2023/12/28 08:40:48;;;;;;;6.25;1.15;;;;;;;9.67;100.00;100992.19;6185787;23;20017;-85
2023/12/28 08:43:16;;;;;;;4.07;1.63;;;;;;;9.71;100.00;100991.50;6185586;23;20051;-84
2023/12/28 08:45:45;;;;;;;2.03;0.98;;;;;;;9.73;100.00;101005.31;6188075;23;20029;-83
2023/12/28 08:48:14;;;;;;;2.65;1.10;;;;;;;9.72;100.00;100988.06;6185598;23;20104;-84
2023/12/28 08:50:48;;;;;;;1.73;1.15;;;;;;;9.70;100.00;100986.25;6184635;23;20013;-83
2023/12/28 08:53:17;;;;;;;3.63;1.23;;;;;;;9.72;100.00;100995.81;6183607;23;20096;-83
2023/12/28 08:55:47;;;;;;;2.47;0.70;;;;;;;9.74;100.00;100996.78;6184326;23;20024;-84
2023/12/28 08:58:16;;;;;;;1.92;0.60;;;;;;;9.78;100.00;100996.06;6185113;23;20017;-84
2023/12/28 09:00:52;;;;;;;0.90;0.57;;;;;;;9.82;100.00;100987.56;6184968;23;20044;-83
2023/12/28 09:03:21;;;;;;;2.38;0.52;;;;;;;9.81;100.00;100985.81;6183407;23;20263;-84
2023/12/28 09:05:50;;;;;;;3.00;0.82;;;;;;;9.80;100.00;100989.25;6184516;23;20095;-83
2023/12/28 09:08:18;;;;;;;3.03;0.70;;;;;;;9.80;100.00;100988.34;6183692;23;20031;-83
2023/12/28 09:10:51;;;;;;;1.98;0.80;;;;;;;9.83;100.00;101007.44;6184498;23;20023;-84
2023/12/28 09:13:20;;;;;;;2.83;0.43;;;;;;;9.82;100.00;101012.53;6184349;23;20021;-84
2023/12/28 09:15:50;;;;;;;0.80;0.40;;;;;;;9.80;100.00;101009.00;6184796;23;20025;-84
2023/12/28 09:18:19;;;;;;;3.03;0.73;;;;;;;9.89;100.00;101021.41;6184365;23;20033;-84
2023/12/28 09:20:50;;;;;;;2.67;0.80;;;;;;;9.93;100.00;101012.94;6184392;23;20028;-84
2023/12/28 09:23:18;;;;;;;1.40;0.63;;;;;;;9.93;100.00;101020.69;6188145;23;20529;-84
2023/12/28 09:25:49;;;;;;;0.90;0.60;;;;;;;9.98;100.00;101006.22;6184464;23;20035;-84
2023/12/28 09:28:17;;;;;;;5.53;0.77;;;;;;;10.01;100.00;101014.06;6184566;23;20441;-84
2023/12/28 09:30:46;;;;;;;2.83;1.05;;;;;;;10.01;100.00;101017.56;6184002;23;20021;-84
2023/12/28 09:33:21;;;;;;;1.98;0.75;;;;;;;9.99;100.00;101020.94;6184566;23;20031;-83
2023/12/28 09:35:50;;;;;;;4.80;1.20;;;;;;;9.94;100.00;101014.69;6183387;23;20460;-83
2023/12/28 09:38:19;;;;;;;2.58;0.70;;;;;;;9.88;100.00;101023.13;6184195;23;20021;-84
2023/12/28 09:40:54;;;;;;;0.60;0.60;;;;;;;9.88;100.00;101012.78;6183977;23;20021;-83
2023/12/28 09:43:26;;;;;;;1.05;0.85;;;;;;;9.90;100.00;101010.25;6183671;23;20449;-83
2023/12/28 09:45:55;;;;;;;1.33;0.88;;;;;;;9.90;100.00;101011.13;6184034;23;20076;-84
2023/12/28 09:48:24;;;;;;;1.55;0.90;;;;;;;9.90;100.00;101018.00;6184142;23;20136;-84
2023/12/28 09:50:54;;;;;;;2.40;0.80;;;;;;;9.86;100.00;101023.03;6184096;23;20017;-84
2023/12/28 09:53:28;;;;;;;1.50;0.85;;;;;;;9.89;100.00;101008.47;6184247;23;20045;-83
2023/12/28 09:55:59;;;;;;;1.77;1.20;;;;;;;9.88;100.00;101015.34;6184140;23;20017;-84
2023/12/28 09:58:30;;;;;;;2.05;1.05;;;;;;;9.88;100.00;101011.91;6183931;23;20023;-84
2023/12/28 10:01:10;;;;;;;2.25;1.02;;;;;;;9.85;100.00;101013.53;6187844;23;20021;-83
2023/12/28 10:03:39;;;;;;;1.58;1.02;;;;;;;9.86;100.00;101033.38;6183921;23;20088;-84
2023/12/28 10:06:08;;;;;;;2.78;0.80;;;;;;;9.84;100.00;101032.44;6185181;23;20013;-83
2023/12/28 10:08:37;;;;;;;1.58;0.98;;;;;;;9.78;100.00;101021.91;6184619;23;20021;-83
2023/12/28 10:11:08;;;;;;;2.60;1.30;;;;;;;9.85;100.00;101031.63;6184551;23;20402;-84
2023/12/28 10:13:37;;;;;;;3.45;1.30;;;;;;;9.84;100.00;101036.75;6183591;23;20104;-83
2023/12/28 10:16:06;;;;;;;2.17;1.40;;;;;;;9.84;100.00;101040.19;6180371;23;20036;-84
2023/12/28 10:18:35;;;;;;;4.10;2.03;;;;;;;9.83;100.00;101032.41;6183646;23;20028;-83
2023/12/28 10:21:08;;;;;;;2.78;1.70;;;;;;;9.82;100.00;101028.91;6184096;23;20028;-84
2023/12/28 10:23:36;;;;;;;3.33;1.35;;;;;;;9.79;100.00;101023.66;6184192;23;20072;-83
2023/12/28 10:26:07;;;;;;;1.80;1.20;;;;;;;9.80;100.00;101030.59;6184085;23;20516;-84
2023/12/28 10:28:40;;;;;;;3.15;1.38;;;;;;;9.77;100.00;101027.00;6184138;23;20031;-84
2023/12/28 10:31:13;;;;;;;2.40;1.58;;;;;;;9.76;100.00;101036.47;6183649;23;20449;-84
2023/12/28 10:33:45;;;;;;;2.92;1.40;;;;;;;9.77;100.00;101032.16;6184917;23;20033;-84
2023/12/28 10:36:17;;;;;;;2.40;1.20;;;;;;;9.76;100.00;101033.88;6185758;23;20021;-84
2023/12/28 10:38:54;;;;;;;2.95;1.67;;;;;;;9.76;100.00;101040.75;6188486;23;20028;-84
2023/12/28 10:41:26;;;;;;;3.15;1.02;;;;;;;9.74;100.00;101034.66;6186004;23;20021;-83
2023/12/28 10:44:03;;;;;;;5.10;1.63;;;;;;;9.72;100.00;101047.50;6185869;23;20013;-83
2023/12/28 10:46:33;;;;;;;8.07;1.38;;;;;;;9.61;100.00;101036.75;6186124;23;20013;-84
2023/12/28 10:49:07;;;;;;;5.72;1.70;;;;;;;9.57;100.00;101044.34;6185538;23;20027;-83
2023/12/28 10:51:38;;;;;;;3.00;1.40;;;;;;;9.55;100.00;101053.72;6186063;23;20029;-83
2023/12/28 10:54:26;;;;;;;2.13;1.40;;;;;;;9.53;100.00;101045.03;6185001;23;20048;-82
2023/12/28 10:57:03;;;;;;;3.10;1.40;;;;;;;9.52;100.00;101043.28;6185784;23;20021;-83
2023/12/28 10:59:41;;;;;;;4.30;2.00;;;;;;;9.51;100.00;101049.28;6184807;23;20021;-82
2023/12/28 11:02:13;;;;;;;2.63;1.38;;;;;;;9.49;100.00;101056.09;6184682;23;20057;-84
2023/12/28 11:04:49;;;;;;;4.83;1.50;;;;;;;9.48;100.00;101057.78;6185927;23;20092;-83
2023/12/28 11:07:20;;;;;;;2.35;1.23;;;;;;;9.48;100.00;101062.06;6185100;23;20018;-83
2023/12/28 11:09:50;;;;;;;2.40;1.42;;;;;;;9.48;100.00;101054.31;6185374;23;20028;-83
2023/12/28 11:12:39;;;;;;;3.17;1.10;;;;;;;9.46;100.00;101058.53;6185549;23;20017;-83
2023/12/28 11:15:11;;;;;;;1.40;0.90;;;;;;;9.42;100.00;101055.84;6188721;23;20055;-84
2023/12/28 11:17:43;;;;;;;1.70;1.10;;;;;;;9.43;100.00;101054.13;6185019;23;20024;-83
2023/12/28 11:20:13;;;;;;;3.67;1.45;;;;;;;9.41;100.00;101056.69;6184631;23;20059;-83
2023/12/28 11:22:43;;;;;;;2.63;1.20;;;;;;;9.46;100.00;101068.88;6185365;23;20039;-84
2023/12/28 11:25:22;;;;;;;0.90;0.80;;;;;;;9.38;100.00;101061.69;6184383;23;20357;-84
2023/12/28 11:27:55;;;;;;;3.88;1.13;;;;;;;9.47;100.00;101087.03;6185488;23;20032;-84
2023/12/28 11:30:28;;;;;;;2.28;1.10;;;;;;;9.41;100.00;101092.84;6185537;23;20088;-83
2023/12/28 11:33:09;;;;;;;;;;;;;;;;;;;;;
2023/12/28 11:35:38;;;;;;;3.83;0.93;;;;;;;9.36;100.00;101088.28;6180954;23;20093;-83
2023/12/28 11:38:10;;;;;;;3.40;1.15;;;;;;;9.33;100.00;101091.63;6185141;23;20029;-82
2023/12/28 11:40:52;;;;;;;1.03;0.77;;;;;;;9.28;100.00;101100.91;6185526;23;20027;-83
2023/12/28 11:43:23;;;;;;;0.63;0.55;;;;;;;9.18;100.00;101094.47;6184920;23;20255;-83
2023/12/28 11:45:56;;;;;;;1.88;0.85;;;;;;;9.16;100.00;101090.97;6184929;23;20076;-83
2023/12/28 11:48:26;;;;;;;2.15;0.80;;;;;;;9.12;100.00;101090.78;6185465;23;20027;-84
2023/12/28 11:50:58;;;;;;;1.13;0.70;;;;;;;9.13;100.00;101095.13;6187284;23;20480;-82
2023/12/28 11:53:26;;;;;;;;;;;;;;;9.07;100.00;101102.59;6186502;23;20338;-83
2023/12/28 11:56:03;;;;;;;2.88;1.20;;;;;;;9.02;100.00;101102.41;6171959;23;19920;-83
2023/12/28 11:58:36;;;;;;;1.95;1.02;;;;;;;9.01;100.00;101093.78;6184888;23;20103;-82
2023/12/28 12:01:05;;;;;;;3.67;0.90;;;;;;;9.03;100.00;101104.19;6184820;23;20084;-82
2023/12/28 12:03:34;;;;;;;2.38;1.02;;;;;;;9.00;100.00;101098.88;6184622;23;20023;-82
2023/12/28 12:06:08;;;;;;;1.83;0.90;;;;;;;9.02;100.00;101098.16;6185784;23;20028;-84
2023/12/28 12:08:36;;;;;;;1.35;0.98;;;;;;;9.02;100.00;101103.31;6182705;23;20520;-83
2023/12/28 12:11:07;;;;;;;0.90;0.63;;;;;;;9.02;100.00;101103.31;6184791;23;20025;-83
2023/12/28 12:13:38;;;;;;;2.40;0.70;;;;;;;9.00;100.00;101093.72;6184845;23;20025;-83
2023/12/28 12:16:09;;;;;;;2.58;1.30;;;;;;;8.99;100.00;101098.00;6183969;23;20021;-84
2023/12/28 12:18:38;;;;;;;0.98;0.88;;;;;;;8.96;100.00;101085.00;6184647;23;20021;-83
2023/12/28 12:21:07;;;;;;;1.90;0.95;;;;;;;8.95;100.00;101090.94;6184211;23;20512;-85
2023/12/28 12:23:36;;;;;;;1.67;1.00;;;;;;;8.93;100.00;101083.97;6183778;23;20480;-82
2023/12/28 12:26:17;;;;;;;;;;;;;;;;;;;;;
2023/12/28 12:28:48;;;;;;;0.88;0.60;;;;;;;8.84;100.00;101094.78;6188658;23;20013;-83
2023/12/28 12:31:17;;;;;;;1.92;1.20;;;;;;;8.73;100.00;101096.06;6185154;23;20092;-84
2023/12/28 12:33:46;;;;;;;2.22;0.80;;;;;;;8.65;100.00;101089.69;6183894;23;20100;-84
2023/12/28 12:36:21;;;;;;;5.97;1.20;;;;;;;8.62;100.00;101086.97;6184876;23;20072;-83
2023/12/28 12:38:50;;;;;;;0.93;0.73;;;;;;;8.61;100.00;101091.22;6185575;23;20064;-84
2023/12/28 12:41:19;;;;;;;1.92;0.77;;;;;;;8.63;100.00;101092.19;6183888;23;20095;-84
2023/12/28 12:43:55;;;;;;;2.28;0.80;;;;;;;8.63;100.00;101091.31;6183375;23;20091;-84
2023/12/28 12:46:27;;;;;;;2.03;0.70;;;;;;;8.62;100.00;101094.72;6183603;23;20068;-84
2023/12/28 12:48:58;;;;;;;1.42;0.70;;;;;;;8.64;100.00;101103.41;6182251;23;20017;-83
2023/12/28 12:51:28;;;;;;;1.37;0.90;;;;;;;8.62;100.00;101099.88;6184624;23;20032;-84
2023/12/28 12:54:11;;;;;;;1.70;0.70;;;;;;;8.60;100.00;101095.50;6184494;23;20025;-83
2023/12/28 12:56:45;;;;;;;1.60;0.75;;;;;;;8.58;100.00;101107.47;6184249;23;20068;-83
2023/12/28 12:59:21;;;;;;;1.08;0.80;;;;;;;8.60;100.00;101112.69;6184067;23;20079;-83
2023/12/28 13:01:49;;;;;;;2.08;0.90;;;;;;;8.59;100.00;101122.16;6184092;23;20024;-82
2023/12/28 13:04:19;;;;;;;1.10;0.65;;;;;;;8.58;100.00;101130.69;6184599;23;20100;-83
2023/12/28 13:06:48;;;;;;;1.92;0.98;;;;;;;8.52;100.00;101129.53;6187894;23;20024;-83
2023/12/28 13:09:22;;;;;;;2.55;1.00;;;;;;;8.47;100.00;101137.06;6184441;23;20519;-83